sensor_id;sensor_type;location;lat;lon;timestamp;P1;durP1;ratioP1;P2;durP2;ratioP2
68432;SDS011;55412;51.350;17.056;2023-07-24T00:00:28;6.03;;;2.40;;
68432;SDS011;55412;51.350;17.056;2023-07-24T00:02:54;4.80;;;1.95;;
68432;SDS011;55412;51.350;17.056;2023-07-24T00:05:21;6.03;;;2.33;;
68432;SDS011;55412;51.350;17.056;2023-07-24T00:07:47;5.47;;;1.80;;
68432;SDS011;55412;51.350;17.056;2023-07-24T00:10:13;5.40;;;2.42;;
68432;SDS011;55412;51.350;17.056;2023-07-24T00:12:39;5.85;;;2.28;;
68432;SDS011;55412;51.350;17.056;2023-07-24T00:15:06;5.88;;;1.95;;
68432;SDS011;55412;51.350;17.056;2023-07-24T00:17:32;6.50;;;2.33;;
68432;SDS011;55412;51.350;17.056;2023-07-24T00:19:59;5.33;;;2.47;;
68432;SDS011;55412;51.350;17.056;2023-07-24T00:22:25;6.32;;;2.20;;
68432;SDS011;55412;51.350;17.056;2023-07-24T00:24:51;5.65;;;2.33;;
68432;SDS011;55412;51.350;17.056;2023-07-24T00:27:17;6.18;;;2.60;;
68432;SDS011;55412;51.350;17.056;2023-07-24T00:29:43;6.43;;;2.30;;
68432;SDS011;55412;51.350;17.056;2023-07-24T00:32:09;4.80;;;1.80;;
68432;SDS011;55412;51.350;17.056;2023-07-24T00:34:36;5.85;;;1.95;;
68432;SDS011;55412;51.350;17.056;2023-07-24T00:37:02;6.68;;;2.40;;
68432;SDS011;55412;51.350;17.056;2023-07-24T00:39:29;7.13;;;2.05;;
68432;SDS011;55412;51.350;17.056;2023-07-24T00:41:55;5.78;;;2.10;;
68432;SDS011;55412;51.350;17.056;2023-07-24T00:44:21;6.80;;;1.73;;
68432;SDS011;55412;51.350;17.056;2023-07-24T00:46:48;6.32;;;2.03;;
68432;SDS011;55412;51.350;17.056;2023-07-24T00:49:14;11.32;;;2.10;;
68432;SDS011;55412;51.350;17.056;2023-07-24T00:51:41;8.18;;;2.08;;
68432;SDS011;55412;51.350;17.056;2023-07-24T00:54:09;6.32;;;2.17;;
68432;SDS011;55412;51.350;17.056;2023-07-24T00:56:37;6.27;;;2.50;;
68432;SDS011;55412;51.350;17.056;2023-07-24T00:59:03;6.30;;;1.90;;
68432;SDS011;55412;51.350;17.056;2023-07-24T01:01:29;5.95;;;2.15;;
68432;SDS011;55412;51.350;17.056;2023-07-24T01:03:56;4.97;;;1.83;;
68432;SDS011;55412;51.350;17.056;2023-07-24T01:06:23;5.82;;;2.00;;
68432;SDS011;55412;51.350;17.056;2023-07-24T01:08:50;5.43;;;1.93;;
68432;SDS011;55412;51.350;17.056;2023-07-24T01:11:19;6.65;;;2.00;;
68432;SDS011;55412;51.350;17.056;2023-07-24T01:16:57;6.82;;;2.00;;
68432;SDS011;55412;51.350;17.056;2023-07-24T01:20:08;6.88;;;2.22;;
68432;SDS011;55412;51.350;17.056;2023-07-24T01:27:52;5.32;;;2.13;;
68432;SDS011;55412;51.350;17.056;2023-07-24T01:30:19;5.38;;;1.77;;
68432;SDS011;55412;51.350;17.056;2023-07-24T01:32:46;6.28;;;1.88;;
68432;SDS011;55412;51.350;17.056;2023-07-24T01:35:12;5.70;;;2.43;;
68432;SDS011;55412;51.350;17.056;2023-07-24T01:37:38;7.60;;;2.35;;
68432;SDS011;55412;51.350;17.056;2023-07-24T01:40:10;5.55;;;2.35;;
68432;SDS011;55412;51.350;17.056;2023-07-24T01:42:37;6.18;;;2.13;;
68432;SDS011;55412;51.350;17.056;2023-07-24T01:45:04;6.03;;;2.00;;
68432;SDS011;55412;51.350;17.056;2023-07-24T01:47:30;5.50;;;2.33;;
68432;SDS011;55412;51.350;17.056;2023-07-24T01:49:57;6.07;;;2.28;;
68432;SDS011;55412;51.350;17.056;2023-07-24T01:52:23;6.07;;;2.25;;
68432;SDS011;55412;51.350;17.056;2023-07-24T01:54:51;5.90;;;2.40;;
68432;SDS011;55412;51.350;17.056;2023-07-24T01:57:17;7.72;;;2.15;;
68432;SDS011;55412;51.350;17.056;2023-07-24T01:59:43;6.30;;;2.20;;
68432;SDS011;55412;51.350;17.056;2023-07-24T02:02:10;4.80;;;2.17;;
68432;SDS011;55412;51.350;17.056;2023-07-24T02:04:36;6.57;;;2.08;;
68432;SDS011;55412;51.350;17.056;2023-07-24T02:07:02;6.45;;;2.40;;
68432;SDS011;55412;51.350;17.056;2023-07-24T02:09:29;6.13;;;2.30;;
68432;SDS011;55412;51.350;17.056;2023-07-24T02:11:55;5.67;;;2.27;;
68432;SDS011;55412;51.350;17.056;2023-07-24T02:14:21;4.95;;;1.77;;
68432;SDS011;55412;51.350;17.056;2023-07-24T02:16:47;7.47;;;2.40;;
68432;SDS011;55412;51.350;17.056;2023-07-24T02:19:13;7.30;;;2.20;;
68432;SDS011;55412;51.350;17.056;2023-07-24T02:21:40;6.00;;;2.67;;
68432;SDS011;55412;51.350;17.056;2023-07-24T02:24:06;7.90;;;2.70;;
68432;SDS011;55412;51.350;17.056;2023-07-24T02:26:32;8.05;;;2.63;;
68432;SDS011;55412;51.350;17.056;2023-07-24T02:28:58;6.45;;;2.50;;
68432;SDS011;55412;51.350;17.056;2023-07-24T02:31:25;7.43;;;2.70;;
68432;SDS011;55412;51.350;17.056;2023-07-24T02:33:51;7.22;;;2.53;;
68432;SDS011;55412;51.350;17.056;2023-07-24T02:36:17;7.17;;;2.47;;
68432;SDS011;55412;51.350;17.056;2023-07-24T02:38:43;6.18;;;2.45;;
68432;SDS011;55412;51.350;17.056;2023-07-24T02:41:10;8.90;;;2.65;;
68432;SDS011;55412;51.350;17.056;2023-07-24T02:43:36;9.35;;;2.58;;
68432;SDS011;55412;51.350;17.056;2023-07-24T02:46:02;6.70;;;2.25;;
68432;SDS011;55412;51.350;17.056;2023-07-24T02:48:28;6.13;;;2.33;;
68432;SDS011;55412;51.350;17.056;2023-07-24T02:50:55;10.65;;;2.50;;
68432;SDS011;55412;51.350;17.056;2023-07-24T02:53:21;7.90;;;2.30;;
68432;SDS011;55412;51.350;17.056;2023-07-24T02:55:47;7.90;;;2.55;;
68432;SDS011;55412;51.350;17.056;2023-07-24T02:58:13;9.88;;;2.65;;
68432;SDS011;55412;51.350;17.056;2023-07-24T03:00:40;7.37;;;2.60;;
68432;SDS011;55412;51.350;17.056;2023-07-24T03:03:06;7.85;;;2.30;;
68432;SDS011;55412;51.350;17.056;2023-07-24T03:05:35;7.78;;;2.30;;
68432;SDS011;55412;51.350;17.056;2023-07-24T03:08:01;6.85;;;1.98;;
68432;SDS011;55412;51.350;17.056;2023-07-24T03:10:28;8.90;;;2.58;;
68432;SDS011;55412;51.350;17.056;2023-07-24T03:12:54;8.20;;;2.50;;
68432;SDS011;55412;51.350;17.056;2023-07-24T03:15:20;7.00;;;2.35;;
68432;SDS011;55412;51.350;17.056;2023-07-24T03:17:46;6.35;;;2.70;;
68432;SDS011;55412;51.350;17.056;2023-07-24T03:20:17;8.63;;;2.08;;
68432;SDS011;55412;51.350;17.056;2023-07-24T03:22:45;9.65;;;2.13;;
68432;SDS011;55412;51.350;17.056;2023-07-24T03:25:11;8.13;;;2.80;;
68432;SDS011;55412;51.350;17.056;2023-07-24T03:27:38;8.23;;;2.17;;
68432;SDS011;55412;51.350;17.056;2023-07-24T03:30:05;8.15;;;2.42;;
68432;SDS011;55412;51.350;17.056;2023-07-24T03:32:31;8.48;;;2.63;;
68432;SDS011;55412;51.350;17.056;2023-07-24T03:34:58;10.27;;;2.33;;
68432;SDS011;55412;51.350;17.056;2023-07-24T03:37:24;6.50;;;2.10;;
68432;SDS011;55412;51.350;17.056;2023-07-24T03:39:50;6.45;;;2.10;;
68432;SDS011;55412;51.350;17.056;2023-07-24T03:42:27;6.05;;;2.05;;
68432;SDS011;55412;51.350;17.056;2023-07-24T03:44:56;10.88;;;2.38;;
68432;SDS011;55412;51.350;17.056;2023-07-24T03:47:23;8.25;;;2.33;;
68432;SDS011;55412;51.350;17.056;2023-07-24T03:49:50;9.03;;;2.33;;
68432;SDS011;55412;51.350;17.056;2023-07-24T03:52:16;6.38;;;2.40;;
68432;SDS011;55412;51.350;17.056;2023-07-24T03:54:42;9.25;;;2.47;;
68432;SDS011;55412;51.350;17.056;2023-07-24T03:57:09;6.10;;;2.33;;
68432;SDS011;55412;51.350;17.056;2023-07-24T03:59:35;8.45;;;2.90;;
68432;SDS011;55412;51.350;17.056;2023-07-24T04:02:02;9.00;;;2.40;;
68432;SDS011;55412;51.350;17.056;2023-07-24T04:04:28;7.18;;;2.70;;
68432;SDS011;55412;51.350;17.056;2023-07-24T04:06:54;7.20;;;2.80;;
68432;SDS011;55412;51.350;17.056;2023-07-24T04:09:20;6.80;;;2.70;;
68432;SDS011;55412;51.350;17.056;2023-07-24T04:11:47;8.82;;;2.63;;
68432;SDS011;55412;51.350;17.056;2023-07-24T04:14:13;8.40;;;2.20;;
68432;SDS011;55412;51.350;17.056;2023-07-24T04:16:39;8.60;;;1.95;;
68432;SDS011;55412;51.350;17.056;2023-07-24T04:19:05;5.25;;;1.92;;
68432;SDS011;55412;51.350;17.056;2023-07-24T04:21:32;17.17;;;2.35;;
68432;SDS011;55412;51.350;17.056;2023-07-24T04:23:58;8.52;;;2.53;;
68432;SDS011;55412;51.350;17.056;2023-07-24T04:26:24;5.07;;;1.97;;
68432;SDS011;55412;51.350;17.056;2023-07-24T04:28:50;5.95;;;2.65;;
68432;SDS011;55412;51.350;17.056;2023-07-24T04:31:16;4.78;;;2.08;;
68432;SDS011;55412;51.350;17.056;2023-07-24T04:33:42;6.40;;;2.30;;
68432;SDS011;55412;51.350;17.056;2023-07-24T04:36:09;7.38;;;2.55;;
68432;SDS011;55412;51.350;17.056;2023-07-24T04:38:35;6.90;;;2.20;;
68432;SDS011;55412;51.350;17.056;2023-07-24T04:41:01;7.43;;;2.42;;
68432;SDS011;55412;51.350;17.056;2023-07-24T04:43:27;6.30;;;1.98;;
68432;SDS011;55412;51.350;17.056;2023-07-24T04:45:54;7.40;;;2.80;;
68432;SDS011;55412;51.350;17.056;2023-07-24T04:48:21;6.88;;;2.58;;
68432;SDS011;55412;51.350;17.056;2023-07-24T04:50:52;6.30;;;2.33;;
68432;SDS011;55412;51.350;17.056;2023-07-24T04:53:22;7.50;;;2.40;;
68432;SDS011;55412;51.350;17.056;2023-07-24T04:55:49;7.45;;;2.50;;
68432;SDS011;55412;51.350;17.056;2023-07-24T04:58:15;6.57;;;2.60;;
68432;SDS011;55412;51.350;17.056;2023-07-24T05:00:42;7.35;;;2.40;;
68432;SDS011;55412;51.350;17.056;2023-07-24T05:03:08;6.70;;;2.60;;
68432;SDS011;55412;51.350;17.056;2023-07-24T05:05:38;5.43;;;2.03;;
68432;SDS011;55412;51.350;17.056;2023-07-24T05:08:05;7.25;;;2.63;;
68432;SDS011;55412;51.350;17.056;2023-07-24T05:10:37;6.72;;;2.50;;
68432;SDS011;55412;51.350;17.056;2023-07-24T05:13:03;5.63;;;2.22;;
68432;SDS011;55412;51.350;17.056;2023-07-24T05:15:30;7.80;;;2.53;;
68432;SDS011;55412;51.350;17.056;2023-07-24T05:17:56;6.05;;;2.50;;
68432;SDS011;55412;51.350;17.056;2023-07-24T05:20:22;6.38;;;2.75;;
68432;SDS011;55412;51.350;17.056;2023-07-24T05:22:48;6.80;;;2.33;;
68432;SDS011;55412;51.350;17.056;2023-07-24T05:25:14;6.35;;;2.67;;
68432;SDS011;55412;51.350;17.056;2023-07-24T05:27:40;6.77;;;2.93;;
68432;SDS011;55412;51.350;17.056;2023-07-24T05:30:06;6.93;;;2.45;;
68432;SDS011;55412;51.350;17.056;2023-07-24T05:32:33;6.93;;;2.60;;
68432;SDS011;55412;51.350;17.056;2023-07-24T05:34:59;5.72;;;2.17;;
68432;SDS011;55412;51.350;17.056;2023-07-24T05:37:25;5.65;;;2.80;;
68432;SDS011;55412;51.350;17.056;2023-07-24T05:39:51;7.00;;;2.60;;
68432;SDS011;55412;51.350;17.056;2023-07-24T05:42:17;5.78;;;2.55;;
68432;SDS011;55412;51.350;17.056;2023-07-24T05:44:44;5.45;;;2.53;;
68432;SDS011;55412;51.350;17.056;2023-07-24T05:47:10;6.78;;;3.13;;
68432;SDS011;55412;51.350;17.056;2023-07-24T05:49:36;6.82;;;2.78;;
68432;SDS011;55412;51.350;17.056;2023-07-24T05:52:02;5.30;;;2.60;;
68432;SDS011;55412;51.350;17.056;2023-07-24T05:54:29;7.70;;;2.70;;
68432;SDS011;55412;51.350;17.056;2023-07-24T05:56:55;6.20;;;2.40;;
68432;SDS011;55412;51.350;17.056;2023-07-24T05:59:21;8.18;;;3.05;;
68432;SDS011;55412;51.350;17.056;2023-07-24T06:01:47;10.20;;;3.00;;
68432;SDS011;55412;51.350;17.056;2023-07-24T06:04:13;7.80;;;2.57;;
68432;SDS011;55412;51.350;17.056;2023-07-24T06:06:39;5.85;;;2.38;;
68432;SDS011;55412;51.350;17.056;2023-07-24T06:09:06;6.45;;;2.70;;
68432;SDS011;55412;51.350;17.056;2023-07-24T06:11:32;8.93;;;2.50;;
68432;SDS011;55412;51.350;17.056;2023-07-24T06:13:58;7.72;;;2.55;;
68432;SDS011;55412;51.350;17.056;2023-07-24T06:16:24;5.57;;;2.23;;
68432;SDS011;55412;51.350;17.056;2023-07-24T06:18:50;9.20;;;2.60;;
68432;SDS011;55412;51.350;17.056;2023-07-24T06:21:16;7.45;;;2.55;;
68432;SDS011;55412;51.350;17.056;2023-07-24T06:23:42;6.00;;;2.38;;
68432;SDS011;55412;51.350;17.056;2023-07-24T06:26:08;6.72;;;2.78;;
68432;SDS011;55412;51.350;17.056;2023-07-24T06:28:35;5.83;;;2.20;;
68432;SDS011;55412;51.350;17.056;2023-07-24T06:31:01;5.97;;;2.25;;
68432;SDS011;55412;51.350;17.056;2023-07-24T06:33:27;7.30;;;3.25;;
68432;SDS011;55412;51.350;17.056;2023-07-24T06:35:53;6.50;;;2.80;;
68432;SDS011;55412;51.350;17.056;2023-07-24T06:38:19;5.80;;;2.88;;
68432;SDS011;55412;51.350;17.056;2023-07-24T06:40:46;6.73;;;2.80;;
68432;SDS011;55412;51.350;17.056;2023-07-24T06:43:12;6.55;;;2.90;;
68432;SDS011;55412;51.350;17.056;2023-07-24T06:45:39;5.60;;;2.67;;
68432;SDS011;55412;51.350;17.056;2023-07-24T06:48:05;6.90;;;2.67;;
68432;SDS011;55412;51.350;17.056;2023-07-24T06:50:31;5.80;;;2.70;;
68432;SDS011;55412;51.350;17.056;2023-07-24T06:52:57;12.37;;;2.60;;
68432;SDS011;55412;51.350;17.056;2023-07-24T06:55:23;5.85;;;2.97;;
68432;SDS011;55412;51.350;17.056;2023-07-24T06:57:50;8.80;;;3.08;;
68432;SDS011;55412;51.350;17.056;2023-07-24T07:00:16;7.97;;;2.42;;
68432;SDS011;55412;51.350;17.056;2023-07-24T07:02:43;5.82;;;3.20;;
68432;SDS011;55412;51.350;17.056;2023-07-24T07:05:09;5.63;;;1.87;;
68432;SDS011;55412;51.350;17.056;2023-07-24T07:07:35;6.95;;;2.40;;
68432;SDS011;55412;51.350;17.056;2023-07-24T07:10:04;8.63;;;2.92;;
68432;SDS011;55412;51.350;17.056;2023-07-24T07:12:31;7.28;;;2.65;;
68432;SDS011;55412;51.350;17.056;2023-07-24T07:14:57;7.72;;;3.25;;
68432;SDS011;55412;51.350;17.056;2023-07-24T07:17:23;7.10;;;2.90;;
68432;SDS011;55412;51.350;17.056;2023-07-24T07:19:49;6.55;;;3.17;;
68432;SDS011;55412;51.350;17.056;2023-07-24T07:22:16;5.40;;;2.50;;
68432;SDS011;55412;51.350;17.056;2023-07-24T07:24:42;6.20;;;1.85;;
68432;SDS011;55412;51.350;17.056;2023-07-24T07:27:09;6.90;;;3.05;;
68432;SDS011;55412;51.350;17.056;2023-07-24T07:29:35;5.70;;;2.00;;
68432;SDS011;55412;51.350;17.056;2023-07-24T07:32:01;6.82;;;2.95;;
68432;SDS011;55412;51.350;17.056;2023-07-24T07:34:27;7.45;;;2.67;;
68432;SDS011;55412;51.350;17.056;2023-07-24T07:36:54;6.47;;;2.58;;
68432;SDS011;55412;51.350;17.056;2023-07-24T07:39:20;6.18;;;3.05;;
68432;SDS011;55412;51.350;17.056;2023-07-24T07:41:46;9.30;;;3.13;;
68432;SDS011;55412;51.350;17.056;2023-07-24T07:44:12;8.32;;;3.20;;
68432;SDS011;55412;51.350;17.056;2023-07-24T07:46:38;6.35;;;2.90;;
68432;SDS011;55412;51.350;17.056;2023-07-24T07:49:04;8.93;;;2.70;;
68432;SDS011;55412;51.350;17.056;2023-07-24T07:51:30;8.90;;;2.83;;
68432;SDS011;55412;51.350;17.056;2023-07-24T07:53:56;5.70;;;2.70;;
68432;SDS011;55412;51.350;17.056;2023-07-24T07:56:23;7.25;;;2.78;;
68432;SDS011;55412;51.350;17.056;2023-07-24T07:58:49;7.72;;;2.65;;
68432;SDS011;55412;51.350;17.056;2023-07-24T08:01:15;9.30;;;2.17;;
68432;SDS011;55412;51.350;17.056;2023-07-24T08:03:41;5.97;;;2.65;;
68432;SDS011;55412;51.350;17.056;2023-07-24T08:06:07;6.13;;;3.03;;
68432;SDS011;55412;51.350;17.056;2023-07-24T08:08:33;8.13;;;2.40;;
68432;SDS011;55412;51.350;17.056;2023-07-24T08:11:04;7.20;;;2.90;;
68432;SDS011;55412;51.350;17.056;2023-07-24T08:13:36;6.28;;;2.13;;
68432;SDS011;55412;51.350;17.056;2023-07-24T08:16:14;6.13;;;3.08;;
68432;SDS011;55412;51.350;17.056;2023-07-24T08:18:47;6.57;;;3.07;;
68432;SDS011;55412;51.350;17.056;2023-07-24T08:21:14;6.13;;;2.55;;
68432;SDS011;55412;51.350;17.056;2023-07-24T08:23:41;5.25;;;2.75;;
68432;SDS011;55412;51.350;17.056;2023-07-24T08:26:07;5.43;;;2.20;;
68432;SDS011;55412;51.350;17.056;2023-07-24T08:28:33;7.13;;;3.13;;
68432;SDS011;55412;51.350;17.056;2023-07-24T08:31:00;9.30;;;2.73;;
68432;SDS011;55412;51.350;17.056;2023-07-24T08:33:27;7.72;;;2.63;;
68432;SDS011;55412;51.350;17.056;2023-07-24T08:36:01;6.85;;;2.65;;
68432;SDS011;55412;51.350;17.056;2023-07-24T08:38:33;6.28;;;2.28;;
68432;SDS011;55412;51.350;17.056;2023-07-24T08:41:01;5.72;;;2.80;;
68432;SDS011;55412;51.350;17.056;2023-07-24T08:43:33;5.20;;;2.30;;
68432;SDS011;55412;51.350;17.056;2023-07-24T08:46:02;4.88;;;2.42;;
68432;SDS011;55412;51.350;17.056;2023-07-24T08:48:33;5.93;;;1.95;;
68432;SDS011;55412;51.350;17.056;2023-07-24T08:51:02;6.97;;;2.30;;
68432;SDS011;55412;51.350;17.056;2023-07-24T08:53:33;4.63;;;1.85;;
68432;SDS011;55412;51.350;17.056;2023-07-24T08:56:06;4.40;;;1.90;;
68432;SDS011;55412;51.350;17.056;2023-07-24T08:58:35;4.95;;;1.73;;
68432;SDS011;55412;51.350;17.056;2023-07-24T09:01:02;4.57;;;2.03;;
68432;SDS011;55412;51.350;17.056;2023-07-24T09:03:30;5.20;;;1.85;;
68432;SDS011;55412;51.350;17.056;2023-07-24T09:05:57;4.60;;;2.20;;
68432;SDS011;55412;51.350;17.056;2023-07-24T09:08:30;4.27;;;1.83;;
68432;SDS011;55412;51.350;17.056;2023-07-24T09:11:02;5.80;;;2.30;;
68432;SDS011;55412;51.350;17.056;2023-07-24T09:13:29;5.65;;;2.72;;
68432;SDS011;55412;51.350;17.056;2023-07-24T09:15:56;5.10;;;2.17;;
68432;SDS011;55412;51.350;17.056;2023-07-24T09:18:24;5.50;;;2.40;;
68432;SDS011;55412;51.350;17.056;2023-07-24T09:20:50;7.60;;;2.60;;
68432;SDS011;55412;51.350;17.056;2023-07-24T09:23:25;5.18;;;1.77;;
68432;SDS011;55412;51.350;17.056;2023-07-24T09:25:55;5.95;;;2.65;;
68432;SDS011;55412;51.350;17.056;2023-07-24T09:28:21;5.57;;;2.70;;
68432;SDS011;55412;51.350;17.056;2023-07-24T09:30:55;6.10;;;2.85;;
68432;SDS011;55412;51.350;17.056;2023-07-24T09:33:33;4.97;;;2.20;;
68432;SDS011;55412;51.350;17.056;2023-07-24T09:36:07;6.25;;;2.90;;
68432;SDS011;55412;51.350;17.056;2023-07-24T09:38:37;6.97;;;2.50;;
68432;SDS011;55412;51.350;17.056;2023-07-24T09:41:05;5.53;;;2.67;;
68432;SDS011;55412;51.350;17.056;2023-07-24T09:43:32;6.18;;;2.53;;
68432;SDS011;55412;51.350;17.056;2023-07-24T09:46:00;5.97;;;2.70;;
68432;SDS011;55412;51.350;17.056;2023-07-24T09:48:37;6.95;;;2.65;;
68432;SDS011;55412;51.350;17.056;2023-07-24T09:51:03;5.22;;;2.80;;
68432;SDS011;55412;51.350;17.056;2023-07-24T09:56:04;5.50;;;2.83;;
68432;SDS011;55412;51.350;17.056;2023-07-24T09:58:34;8.70;;;2.27;;
68432;SDS011;55412;51.350;17.056;2023-07-24T10:01:03;6.15;;;3.05;;
68432;SDS011;55412;51.350;17.056;2023-07-24T10:03:40;7.60;;;2.75;;
68432;SDS011;55412;51.350;17.056;2023-07-24T10:06:12;5.88;;;3.03;;
68432;SDS011;55412;51.350;17.056;2023-07-24T10:08:40;7.13;;;3.47;;
68432;SDS011;55412;51.350;17.056;2023-07-24T10:11:07;7.57;;;2.63;;
68432;SDS011;55412;51.350;17.056;2023-07-24T10:13:36;7.35;;;2.78;;
68432;SDS011;55412;51.350;17.056;2023-07-24T10:16:12;5.53;;;3.20;;
68432;SDS011;55412;51.350;17.056;2023-07-24T10:18:45;6.18;;;2.72;;
68432;SDS011;55412;51.350;17.056;2023-07-24T10:21:16;6.93;;;3.35;;
68432;SDS011;55412;51.350;17.056;2023-07-24T10:23:45;6.57;;;2.90;;
68432;SDS011;55412;51.350;17.056;2023-07-24T10:26:12;5.60;;;2.38;;
68432;SDS011;55412;51.350;17.056;2023-07-24T10:28:40;6.68;;;3.13;;
68432;SDS011;55412;51.350;17.056;2023-07-24T10:31:28;7.05;;;2.78;;
68432;SDS011;55412;51.350;17.056;2023-07-24T10:33:55;5.68;;;2.53;;
68432;SDS011;55412;51.350;17.056;2023-07-24T10:36:22;6.83;;;2.83;;
68432;SDS011;55412;51.350;17.056;2023-07-24T10:38:53;7.72;;;2.63;;
68432;SDS011;55412;51.350;17.056;2023-07-24T10:41:20;7.10;;;3.40;;
68432;SDS011;55412;51.350;17.056;2023-07-24T10:43:47;6.13;;;2.78;;
68432;SDS011;55412;51.350;17.056;2023-07-24T10:46:16;6.15;;;3.20;;
68432;SDS011;55412;51.350;17.056;2023-07-24T10:48:47;5.80;;;2.60;;
68432;SDS011;55412;51.350;17.056;2023-07-24T10:51:15;5.95;;;3.25;;
68432;SDS011;55412;51.350;17.056;2023-07-24T10:53:46;8.60;;;3.97;;
68432;SDS011;55412;51.350;17.056;2023-07-24T10:56:14;7.85;;;3.55;;
68432;SDS011;55412;51.350;17.056;2023-07-24T10:58:41;8.50;;;3.35;;
68432;SDS011;55412;51.350;17.056;2023-07-24T11:01:08;5.77;;;2.70;;
68432;SDS011;55412;51.350;17.056;2023-07-24T11:03:42;6.13;;;2.70;;
68432;SDS011;55412;51.350;17.056;2023-07-24T11:06:15;6.03;;;3.28;;
68432;SDS011;55412;51.350;17.056;2023-07-24T11:08:52;11.35;;;2.97;;
68432;SDS011;55412;51.350;17.056;2023-07-24T11:11:29;6.45;;;3.30;;
68432;SDS011;55412;51.350;17.056;2023-07-24T11:13:57;6.77;;;2.73;;
68432;SDS011;55412;51.350;17.056;2023-07-24T11:16:23;6.25;;;2.88;;
68432;SDS011;55412;51.350;17.056;2023-07-24T11:18:50;8.25;;;3.00;;
68432;SDS011;55412;51.350;17.056;2023-07-24T11:21:20;5.63;;;3.13;;
68432;SDS011;55412;51.350;17.056;2023-07-24T11:23:49;6.70;;;3.03;;
68432;SDS011;55412;51.350;17.056;2023-07-24T11:26:20;7.00;;;3.07;;
68432;SDS011;55412;51.350;17.056;2023-07-24T11:28:48;7.22;;;3.30;;
68432;SDS011;55412;51.350;17.056;2023-07-24T11:31:15;6.97;;;3.28;;
68432;SDS011;55412;51.350;17.056;2023-07-24T11:33:45;7.07;;;2.83;;
68432;SDS011;55412;51.350;17.056;2023-07-24T11:36:16;7.10;;;3.08;;
68432;SDS011;55412;51.350;17.056;2023-07-24T11:38:44;5.20;;;2.40;;
68432;SDS011;55412;51.350;17.056;2023-07-24T11:41:14;7.95;;;3.70;;
68432;SDS011;55412;51.350;17.056;2023-07-24T11:43:45;8.13;;;4.20;;
68432;SDS011;55412;51.350;17.056;2023-07-24T11:46:21;9.65;;;3.55;;
68432;SDS011;55412;51.350;17.056;2023-07-24T11:48:53;10.02;;;4.30;;
68432;SDS011;55412;51.350;17.056;2023-07-24T11:51:22;7.40;;;3.27;;
68432;SDS011;55412;51.350;17.056;2023-07-24T11:53:51;6.70;;;2.88;;
68432;SDS011;55412;51.350;17.056;2023-07-24T11:56:17;10.25;;;4.15;;
68432;SDS011;55412;51.350;17.056;2023-07-24T11:58:47;10.10;;;4.30;;
68432;SDS011;55412;51.350;17.056;2023-07-24T12:01:13;10.77;;;4.38;;
68432;SDS011;55412;51.350;17.056;2023-07-24T12:03:39;7.43;;;4.07;;
68432;SDS011;55412;51.350;17.056;2023-07-24T12:06:13;8.93;;;3.38;;
68432;SDS011;55412;51.350;17.056;2023-07-24T12:08:41;20.52;;;4.55;;
68432;SDS011;55412;51.350;17.056;2023-07-24T12:11:15;9.00;;;4.28;;
68432;SDS011;55412;51.350;17.056;2023-07-24T12:13:45;7.95;;;4.32;;
68432;SDS011;55412;51.350;17.056;2023-07-24T12:16:12;10.43;;;3.53;;
68432;SDS011;55412;51.350;17.056;2023-07-24T12:18:38;10.30;;;4.05;;
68432;SDS011;55412;51.350;17.056;2023-07-24T12:21:04;7.88;;;3.85;;
68432;SDS011;55412;51.350;17.056;2023-07-24T12:23:30;8.85;;;4.10;;
68432;SDS011;55412;51.350;17.056;2023-07-24T12:25:56;10.43;;;4.30;;
68432;SDS011;55412;51.350;17.056;2023-07-24T12:28:26;8.43;;;4.30;;
68432;SDS011;55412;51.350;17.056;2023-07-24T12:30:52;8.68;;;3.40;;
68432;SDS011;55412;51.350;17.056;2023-07-24T12:33:18;12.27;;;4.53;;
68432;SDS011;55412;51.350;17.056;2023-07-24T12:35:48;7.80;;;3.38;;
68432;SDS011;55412;51.350;17.056;2023-07-24T12:38:15;10.40;;;4.03;;
68432;SDS011;55412;51.350;17.056;2023-07-24T12:40:41;9.10;;;3.63;;
68432;SDS011;55412;51.350;17.056;2023-07-24T12:43:07;9.43;;;3.63;;
68432;SDS011;55412;51.350;17.056;2023-07-24T12:45:33;10.18;;;4.47;;
68432;SDS011;55412;51.350;17.056;2023-07-24T12:48:00;8.38;;;4.13;;
68432;SDS011;55412;51.350;17.056;2023-07-24T12:50:27;7.28;;;4.00;;
68432;SDS011;55412;51.350;17.056;2023-07-24T12:52:53;7.87;;;3.43;;
68432;SDS011;55412;51.350;17.056;2023-07-24T12:55:19;11.10;;;3.85;;
68432;SDS011;55412;51.350;17.056;2023-07-24T12:57:45;7.50;;;3.97;;
68432;SDS011;55412;51.350;17.056;2023-07-24T13:00:15;7.40;;;3.72;;
68432;SDS011;55412;51.350;17.056;2023-07-24T13:02:41;8.85;;;4.50;;
68432;SDS011;55412;51.350;17.056;2023-07-24T13:05:08;8.73;;;4.03;;
68432;SDS011;55412;51.350;17.056;2023-07-24T13:07:34;9.45;;;4.40;;
68432;SDS011;55412;51.350;17.056;2023-07-24T13:10:00;10.35;;;4.15;;
68432;SDS011;55412;51.350;17.056;2023-07-24T13:12:26;10.63;;;4.93;;
68432;SDS011;55412;51.350;17.056;2023-07-24T13:14:52;8.70;;;4.30;;
68432;SDS011;55412;51.350;17.056;2023-07-24T13:17:18;10.40;;;4.87;;
68432;SDS011;55412;51.350;17.056;2023-07-24T13:19:45;9.23;;;4.15;;
68432;SDS011;55412;51.350;17.056;2023-07-24T13:22:11;9.57;;;5.80;;
68432;SDS011;55412;51.350;17.056;2023-07-24T13:24:37;8.98;;;5.10;;
68432;SDS011;55412;51.350;17.056;2023-07-24T13:27:03;9.60;;;4.70;;
68432;SDS011;55412;51.350;17.056;2023-07-24T13:29:30;11.17;;;4.70;;
68432;SDS011;55412;51.350;17.056;2023-07-24T13:31:56;12.07;;;4.95;;
68432;SDS011;55412;51.350;17.056;2023-07-24T13:34:23;10.15;;;5.35;;
68432;SDS011;55412;51.350;17.056;2023-07-24T13:36:50;10.27;;;5.15;;
68432;SDS011;55412;51.350;17.056;2023-07-24T13:39:16;9.25;;;4.30;;
68432;SDS011;55412;51.350;17.056;2023-07-24T13:41:45;10.27;;;4.17;;
68432;SDS011;55412;51.350;17.056;2023-07-24T13:44:11;9.98;;;5.05;;
68432;SDS011;55412;51.350;17.056;2023-07-24T13:46:38;10.30;;;4.90;;
68432;SDS011;55412;51.350;17.056;2023-07-24T13:49:04;11.57;;;4.43;;
68432;SDS011;55412;51.350;17.056;2023-07-24T13:51:31;8.85;;;4.72;;
68432;SDS011;55412;51.350;17.056;2023-07-24T13:53:57;13.83;;;4.80;;
68432;SDS011;55412;51.350;17.056;2023-07-24T13:56:24;10.70;;;4.60;;
68432;SDS011;55412;51.350;17.056;2023-07-24T13:58:52;9.93;;;5.00;;
68432;SDS011;55412;51.350;17.056;2023-07-24T14:01:19;11.57;;;4.60;;
68432;SDS011;55412;51.350;17.056;2023-07-24T14:03:45;9.77;;;5.13;;
68432;SDS011;55412;51.350;17.056;2023-07-24T14:06:11;11.67;;;4.73;;
68432;SDS011;55412;51.350;17.056;2023-07-24T14:08:37;11.65;;;4.50;;
68432;SDS011;55412;51.350;17.056;2023-07-24T14:11:03;9.98;;;4.43;;
68432;SDS011;55412;51.350;17.056;2023-07-24T14:13:29;9.48;;;4.43;;
68432;SDS011;55412;51.350;17.056;2023-07-24T14:15:55;11.60;;;4.55;;
68432;SDS011;55412;51.350;17.056;2023-07-24T14:18:24;8.83;;;3.93;;
68432;SDS011;55412;51.350;17.056;2023-07-24T14:20:51;9.68;;;4.68;;
68432;SDS011;55412;51.350;17.056;2023-07-24T14:23:19;11.13;;;4.72;;
68432;SDS011;55412;51.350;17.056;2023-07-24T14:25:45;9.25;;;4.15;;
68432;SDS011;55412;51.350;17.056;2023-07-24T14:28:15;9.50;;;4.25;;
68432;SDS011;55412;51.350;17.056;2023-07-24T14:30:41;9.80;;;4.33;;
68432;SDS011;55412;51.350;17.056;2023-07-24T14:33:07;9.35;;;4.43;;
68432;SDS011;55412;51.350;17.056;2023-07-24T14:35:33;8.90;;;4.25;;
68432;SDS011;55412;51.350;17.056;2023-07-24T14:38:00;11.65;;;4.07;;
68432;SDS011;55412;51.350;17.056;2023-07-24T14:40:26;10.90;;;3.90;;
68432;SDS011;55412;51.350;17.056;2023-07-24T14:42:52;9.00;;;4.17;;
68432;SDS011;55412;51.350;17.056;2023-07-24T14:45:19;10.20;;;4.13;;